createdAt,value
2019-05-23T00:02:15.945Z,77.80
2019-05-23T00:04:47.137Z,78.00
2019-05-23T00:07:18.196Z,78.10
2019-05-23T00:09:47.472Z,78.00
2019-05-23T00:12:34.461Z,78.00
2019-05-23T00:15:08.107Z,78.10
2019-05-23T00:17:37.363Z,78.30
2019-05-23T00:20:07.680Z,78.30
2019-05-23T00:22:37.207Z,78.40
2019-05-23T00:25:10.924Z,78.40
2019-05-23T00:27:42.737Z,78.60
2019-05-23T00:30:14.138Z,78.60
2019-05-23T00:32:47.506Z,78.70
2019-05-23T00:35:17.781Z,78.70
2019-05-23T00:37:47.416Z,78.60
2019-05-23T00:40:17.061Z,78.60
2019-05-23T00:42:46.342Z,78.70
2019-05-23T00:45:15.656Z,78.70
2019-05-23T00:47:44.930Z,78.80
2019-05-23T00:50:17.116Z,78.70
2019-05-23T00:52:47.413Z,79.00
2019-05-23T00:55:16.679Z,78.90
2019-05-23T00:57:45.828Z,78.80
2019-05-23T01:00:19.415Z,78.80
2019-05-23T01:02:50.023Z,78.80
2019-05-23T01:05:19.001Z,78.70
2019-05-23T01:07:48.504Z,78.70
2019-05-23T01:10:18.398Z,78.70
2019-05-23T01:12:48.309Z,78.60
2019-05-23T01:15:18.845Z,78.80
2019-05-23T01:17:48.013Z,78.80
2019-05-23T01:20:19.008Z,78.70
2019-05-23T01:22:49.325Z,78.60
2019-05-23T01:25:21.392Z,78.60
2019-05-23T01:27:51.349Z,78.60
2019-05-23T01:30:22.167Z,78.60
2019-05-23T01:32:52.687Z,78.50
2019-05-23T01:35:22.739Z,78.50
2019-05-23T01:37:51.961Z,78.60
2019-05-23T01:40:21.695Z,78.50
2019-05-23T01:42:51.743Z,78.60
2019-05-23T01:45:20.840Z,78.50
2019-05-23T01:47:50.425Z,78.80
2019-05-23T01:50:22.806Z,78.80
2019-05-23T01:52:53.461Z,78.80
2019-05-23T01:55:22.368Z,79.10
2019-05-23T01:57:51.560Z,79.00
2019-05-23T02:00:21.446Z,79.20
2019-05-23T02:02:51.215Z,79.20
2019-05-23T02:05:20.421Z,79.40
2019-05-23T02:07:49.449Z,79.80
2019-05-23T02:10:19.742Z,79.80
2019-05-23T02:12:48.985Z,79.80
2019-05-23T02:15:18.887Z,79.90
2019-05-23T02:17:48.017Z,79.90
2019-05-23T02:20:19.319Z,79.90
2019-05-23T02:22:48.937Z,80.30
2019-05-23T02:25:21.647Z,80.60
2019-05-23T02:27:51.082Z,80.80
2019-05-23T02:30:34.067Z,80.80
2019-05-23T02:32:52.964Z,80.70
2019-05-23T02:35:22.925Z,80.70
2019-05-23T02:37:59.589Z,80.70
2019-05-23T02:40:29.933Z,80.80
2019-05-23T02:43:02.994Z,81.60
2019-05-23T02:45:34.183Z,80.90
2019-05-23T02:48:05.088Z,80.90
2019-05-23T02:50:36.976Z,81.10
2019-05-23T02:53:09.272Z,81.20
2019-05-23T02:55:41.262Z,81.30
2019-05-23T02:58:13.023Z,81.50
2019-05-23T03:00:55.827Z,81.60
2019-05-23T03:03:28.208Z,81.50
2019-05-23T03:05:59.539Z,81.60
2019-05-23T03:08:29.753Z,81.70
2019-05-23T03:11:12.338Z,81.70
2019-05-23T03:13:41.807Z,81.60
2019-05-23T03:16:16.830Z,81.30
2019-05-23T03:18:48.974Z,81.60
2019-05-23T03:21:19.882Z,81.80
2019-05-23T03:23:49.566Z,81.70
2019-05-23T03:26:21.328Z,81.80
2019-05-23T03:28:50.277Z,81.80
2019-05-23T03:31:32.224Z,81.60
2019-05-23T03:34:01.285Z,81.60
2019-05-23T03:36:30.862Z,81.70
2019-05-23T03:38:59.749Z,81.50
2019-05-23T03:41:30.594Z,81.50
2019-05-23T03:44:01.769Z,81.70
2019-05-23T03:46:32.105Z,81.60
2019-05-23T03:49:02.387Z,81.70
2019-05-23T03:51:31.641Z,81.70
2019-05-23T03:54:02.733Z,81.90
2019-05-23T03:56:31.582Z,82.00
2019-05-23T03:59:01.013Z,82.10
2019-05-23T04:01:47.001Z,82.30
2019-05-23T04:04:02.728Z,82.40
2019-05-23T04:06:33.153Z,82.30
2019-05-23T04:09:03.880Z,82.70
2019-05-23T04:11:32.798Z,82.40
2019-05-23T04:14:02.045Z,82.60
2019-05-23T04:16:31.053Z,82.70
2019-05-23T04:18:59.914Z,82.60
2019-05-23T04:21:28.790Z,82.60
2019-05-23T04:23:57.783Z,82.50
2019-05-23T04:26:26.958Z,82.40
2019-05-23T04:28:55.800Z,82.30
2019-05-23T04:31:25.103Z,82.20
2019-05-23T04:33:54.323Z,82.40
2019-05-23T04:36:23.677Z,82.70
2019-05-23T04:38:52.658Z,82.60
2019-05-23T04:41:21.531Z,82.40
2019-05-23T04:43:50.598Z,82.50
2019-05-23T04:46:20.409Z,82.40
2019-05-23T04:48:49.760Z,82.30
2019-05-23T04:51:18.650Z,83.00
2019-05-23T04:53:47.552Z,82.30
2019-05-23T04:56:17.280Z,82.20
2019-05-23T04:58:46.522Z,82.20
2019-05-23T05:01:16.815Z,82.10
2019-05-23T05:03:46.659Z,82.10
2019-05-23T05:06:15.533Z,82.00
2019-05-23T05:08:44.398Z,82.20
2019-05-23T05:11:13.276Z,82.00
2019-05-23T05:13:42.464Z,82.00
2019-05-23T05:16:11.414Z,81.90
2019-05-23T05:18:40.399Z,81.80
2019-05-23T05:21:09.367Z,81.80
2019-05-23T05:23:38.527Z,82.60
2019-05-23T05:26:10.340Z,81.70
2019-05-23T05:28:39.495Z,81.40
2019-05-23T05:31:08.386Z,81.70
2019-05-23T05:33:37.489Z,80.60
2019-05-23T05:36:06.546Z,80.40
2019-05-23T05:38:35.420Z,80.10
2019-05-23T05:41:05.248Z,79.80
2019-05-23T05:43:34.833Z,79.70
2019-05-23T05:46:04.074Z,79.20
2019-05-23T05:48:33.282Z,79.10
2019-05-23T05:51:02.170Z,78.60
2019-05-23T05:53:31.648Z,78.20
2019-05-23T05:56:00.600Z,78.00
2019-05-23T05:58:29.480Z,77.20
2019-05-23T06:01:00.712Z,76.00
2019-05-23T06:03:30.056Z,75.90
2019-05-23T06:06:00.464Z,75.80
2019-05-23T06:08:30.952Z,75.40
2019-05-23T06:10:59.858Z,74.40
2019-05-23T06:13:29.171Z,74.10
2019-05-23T06:15:58.031Z,73.60
2019-05-23T06:18:27.309Z,73.30
2019-05-23T06:20:56.659Z,72.70
2019-05-23T06:23:25.500Z,71.70
2019-05-23T06:25:54.884Z,70.80
2019-05-23T06:28:24.636Z,70.90
2019-05-23T06:30:54.552Z,71.00
2019-05-23T06:33:24.467Z,70.60
2019-05-23T06:35:54.436Z,69.30
2019-05-23T06:38:24.295Z,68.20
2019-05-23T06:40:54.602Z,68.40
2019-05-23T06:43:23.601Z,67.60
2019-05-23T06:45:53.013Z,67.10
2019-05-23T06:48:22.536Z,66.60
2019-05-23T06:50:51.589Z,67.40
2019-05-23T06:53:20.493Z,67.60
2019-05-23T06:55:49.378Z,68.30
2019-05-23T06:58:18.702Z,66.90
2019-05-23T07:00:48.719Z,66.40
2019-05-23T07:03:17.838Z,65.80
2019-05-23T07:05:46.768Z,65.10
2019-05-23T07:08:15.725Z,65.00
2019-05-23T07:10:45.019Z,64.40
2019-05-23T07:13:14.020Z,63.90
2019-05-23T07:15:43.984Z,62.90
2019-05-23T07:18:13.044Z,64.00
2019-05-23T07:20:41.884Z,63.60
2019-05-23T07:23:12.746Z,63.50
2019-05-23T07:25:41.922Z,63.10
2019-05-23T07:28:10.807Z,62.50
2019-05-23T07:30:39.743Z,62.50
2019-05-23T07:33:09.881Z,62.50
2019-05-23T07:35:38.755Z,62.70
2019-05-23T07:38:07.660Z,62.30
2019-05-23T07:40:36.589Z,61.70
2019-05-23T07:43:06.965Z,61.80
2019-05-23T07:45:40.665Z,62.60
2019-05-23T07:48:09.666Z,62.50
2019-05-23T07:50:38.592Z,62.40
2019-05-23T07:53:07.908Z,62.50
2019-05-23T07:55:38.578Z,62.90
2019-05-23T07:58:07.458Z,62.30
2019-05-23T08:00:44.450Z,62.50
2019-05-23T08:03:15.629Z,62.70
2019-05-23T08:05:44.689Z,62.30
2019-05-23T08:08:13.788Z,61.70
2019-05-23T08:10:42.834Z,61.00
2019-05-23T08:13:12.064Z,61.10
2019-05-23T08:15:41.568Z,60.70
2019-05-23T08:18:11.146Z,60.20
2019-05-23T08:20:40.617Z,60.40
2019-05-23T08:23:09.511Z,60.40
2019-05-23T08:25:38.412Z,60.00
2019-05-23T08:28:08.110Z,60.00
2019-05-23T08:30:37.224Z,60.10
2019-05-23T08:33:07.082Z,59.90
2019-05-23T08:35:35.975Z,60.10
2019-05-23T08:38:05.616Z,60.30
2019-05-23T08:40:34.462Z,60.00
2019-05-23T08:43:04.091Z,59.80
2019-05-23T08:45:33.307Z,59.40
2019-05-23T08:48:02.172Z,58.60
2019-05-23T08:50:31.590Z,58.20
2019-05-23T08:53:00.790Z,58.40
2019-05-23T08:55:31.828Z,58.50
2019-05-23T08:58:00.676Z,58.20
2019-05-23T09:00:30.071Z,58.20
2019-05-23T09:02:59.358Z,58.50
2019-05-23T09:05:30.534Z,58.50
2019-05-23T09:07:59.523Z,58.80
2019-05-23T09:10:29.899Z,59.20
2019-05-23T09:12:59.870Z,59.20
2019-05-23T09:15:29.080Z,58.90
2019-05-23T09:17:58.366Z,58.20
2019-05-23T09:20:27.587Z,58.40
2019-05-23T09:22:56.469Z,57.50
2019-05-23T09:25:25.541Z,57.30
2019-05-23T09:27:54.639Z,57.00
2019-05-23T09:30:25.204Z,56.90
2019-05-23T09:32:54.050Z,56.30
2019-05-23T09:35:23.237Z,56.00
2019-05-23T09:37:52.132Z,55.90
2019-05-23T09:40:21.804Z,56.00
2019-05-23T09:42:50.810Z,56.00
2019-05-23T09:45:20.037Z,55.80
2019-05-23T09:47:51.246Z,55.90
2019-05-23T09:50:21.065Z,56.00
2019-05-23T09:52:49.906Z,56.10
2019-05-23T09:55:19.584Z,55.90
2019-05-23T09:57:48.581Z,55.80
2019-05-23T10:00:20.931Z,55.90
2019-05-23T10:02:49.809Z,55.20
2019-05-23T10:05:18.951Z,54.70
2019-05-23T10:07:47.879Z,54.90
2019-05-23T10:10:17.904Z,53.70
2019-05-23T10:12:47.081Z,53.40
2019-05-23T10:15:20.825Z,53.60
2019-05-23T10:17:49.692Z,52.80
2019-05-23T10:20:18.906Z,52.70
2019-05-23T10:22:47.700Z,52.80
2019-05-23T10:25:16.619Z,53.50
2019-05-23T10:27:45.616Z,52.90
2019-05-23T10:30:16.329Z,52.70
2019-05-23T10:32:45.197Z,52.90
2019-05-23T10:35:14.654Z,53.10
2019-05-23T10:37:43.461Z,52.80
2019-05-23T10:40:12.968Z,52.40
2019-05-23T10:42:41.806Z,52.80
2019-05-23T10:45:12.265Z,52.30
2019-05-23T10:47:41.273Z,52.20
2019-05-23T10:50:10.499Z,51.80
2019-05-23T10:52:40.021Z,52.10
2019-05-23T10:55:09.510Z,52.30
2019-05-23T10:57:38.346Z,52.50
2019-05-23T11:00:09.764Z,51.80
2019-05-23T11:02:39.545Z,51.30
2019-05-23T11:05:13.361Z,51.40
2019-05-23T11:07:41.812Z,51.00
2019-05-23T11:10:12.119Z,50.90
2019-05-23T11:12:41.850Z,50.80
2019-05-23T11:15:11.073Z,51.30
2019-05-23T11:17:40.428Z,50.60
2019-05-23T11:20:10.977Z,50.30
2019-05-23T11:22:39.892Z,49.60
2019-05-23T11:25:15.253Z,49.20
2019-05-23T11:27:45.023Z,48.30
2019-05-23T11:30:16.205Z,48.60
2019-05-23T11:32:45.049Z,48.50
2019-05-23T11:35:13.994Z,48.20
2019-05-23T11:37:42.971Z,47.90
2019-05-23T11:40:11.992Z,48.30
2019-05-23T11:42:41.233Z,47.50
2019-05-23T11:45:10.654Z,46.90
2019-05-23T11:47:39.539Z,46.40
2019-05-23T11:50:08.909Z,46.70
2019-05-23T11:52:38.232Z,46.10
2019-05-23T11:55:11.586Z,46.50
2019-05-23T11:57:40.452Z,46.70
2019-05-23T12:00:11.361Z,46.00
2019-05-23T12:02:47.646Z,46.50
2019-05-23T12:05:27.471Z,46.50
2019-05-23T12:07:56.376Z,46.40
2019-05-23T12:10:25.472Z,46.80
2019-05-23T12:12:54.373Z,46.50
2019-05-23T12:15:24.951Z,46.00
2019-05-23T12:17:54.221Z,45.90
2019-05-23T12:20:23.108Z,46.20
2019-05-23T12:22:52.111Z,45.60
2019-05-23T12:25:23.451Z,45.60
2019-05-23T12:27:52.755Z,44.70
2019-05-23T12:30:22.757Z,44.20
2019-05-23T12:32:51.607Z,44.20
2019-05-23T12:35:20.525Z,44.30
2019-05-23T12:37:49.452Z,43.70
2019-05-23T12:40:18.417Z,44.30
2019-05-23T12:42:47.375Z,45.20
2019-05-23T12:45:17.054Z,45.60
2019-05-23T12:47:50.663Z,45.10
2019-05-23T12:50:21.107Z,44.50
2019-05-23T12:52:50.078Z,44.30
2019-05-23T12:55:19.150Z,44.10
2019-05-23T12:57:48.094Z,44.00
2019-05-23T13:00:22.511Z,43.50
2019-05-23T13:02:51.391Z,43.60
2019-05-23T13:05:20.434Z,43.50
2019-05-23T13:07:49.395Z,43.80
2019-05-23T13:10:23.763Z,44.10
2019-05-23T13:12:48.894Z,44.60
2019-05-23T13:15:17.723Z,43.80
2019-05-23T13:17:46.646Z,43.80
2019-05-23T13:20:15.818Z,43.70
2019-05-23T13:22:44.696Z,43.30
2019-05-23T13:25:13.835Z,42.70
2019-05-23T13:27:43.272Z,43.00
2019-05-23T13:30:12.376Z,42.70
2019-05-23T13:32:41.391Z,42.90
2019-05-23T13:35:10.763Z,43.30
2019-05-23T13:37:53.030Z,43.60
2019-05-23T13:40:12.922Z,43.50
2019-05-23T13:42:41.828Z,43.90
2019-05-23T13:45:11.314Z,43.90
2019-05-23T13:47:40.230Z,44.00
2019-05-23T13:50:09.839Z,44.00
2019-05-23T13:52:38.721Z,43.70
2019-05-23T13:55:08.549Z,43.40
2019-05-23T13:57:37.701Z,43.20
2019-05-23T14:00:11.482Z,44.20
2019-05-23T14:02:40.601Z,44.40
2019-05-23T14:05:09.810Z,44.60
2019-05-23T14:07:39.280Z,44.40
2019-05-23T14:10:10.788Z,44.20
2019-05-23T14:12:40.240Z,44.40
2019-05-23T14:15:11.484Z,44.00
2019-05-23T14:17:47.907Z,44.60
2019-05-23T14:20:17.290Z,44.10
2019-05-23T14:23:03.643Z,43.40
2019-05-23T14:25:32.863Z,43.90
2019-05-23T14:28:03.321Z,43.50
2019-05-23T14:30:34.307Z,43.80
2019-05-23T14:33:21.217Z,43.40
2019-05-23T14:35:51.845Z,43.50
2019-05-23T14:38:30.401Z,43.40
2019-05-23T14:40:51.354Z,43.50
2019-05-23T14:43:22.063Z,44.10
2019-05-23T14:45:52.485Z,44.20
2019-05-23T14:48:34.962Z,43.40
2019-05-23T14:51:09.224Z,43.50
2019-05-23T14:53:40.251Z,42.60
2019-05-23T14:56:09.512Z,41.80
2019-05-23T14:58:38.336Z,42.30
2019-05-23T15:01:07.610Z,42.30
2019-05-23T15:03:36.394Z,42.00
2019-05-23T15:06:05.341Z,42.30
2019-05-23T15:08:49.560Z,42.70
2019-05-23T15:11:08.999Z,42.30
2019-05-23T15:13:37.947Z,42.20
2019-05-23T15:16:06.884Z,41.90
2019-05-23T15:18:35.769Z,41.50
2019-05-23T15:21:05.214Z,41.60
2019-05-23T15:23:34.202Z,41.30
2019-05-23T15:26:21.085Z,41.30
2019-05-23T15:28:33.734Z,41.20
2019-05-23T15:31:02.629Z,41.90
2019-05-23T15:33:31.595Z,42.40
2019-05-23T15:36:00.594Z,42.40
2019-05-23T15:38:29.472Z,43.10
2019-05-23T15:40:58.404Z,42.40
2019-05-23T15:43:27.298Z,42.60
2019-05-23T15:45:56.214Z,42.60
2019-05-23T15:48:25.156Z,42.40
2019-05-23T15:50:54.169Z,42.30
2019-05-23T15:53:33.443Z,42.30
2019-05-23T15:56:26.089Z,42.50
2019-05-23T15:58:56.506Z,42.90
2019-05-23T16:01:30.265Z,43.70
2019-05-23T16:04:04.097Z,43.60
2019-05-23T16:06:34.797Z,43.80
2019-05-23T16:09:06.720Z,44.70
2019-05-23T16:11:35.800Z,44.30
2019-05-23T16:14:04.733Z,44.60
2019-05-23T16:16:33.635Z,44.80
2019-05-23T16:19:02.647Z,44.70
2019-05-23T16:21:32.033Z,44.70
2019-05-23T16:24:01.354Z,44.80
2019-05-23T16:26:30.449Z,44.90
2019-05-23T16:28:59.557Z,45.00
2019-05-23T16:31:28.443Z,44.90
2019-05-23T16:33:57.351Z,45.10
2019-05-23T16:36:26.165Z,45.20
2019-05-23T16:38:54.957Z,45.70
2019-05-23T16:41:23.920Z,45.90
2019-05-23T16:43:52.790Z,46.20
2019-05-23T16:46:21.821Z,46.30
2019-05-23T16:48:51.422Z,46.20
2019-05-23T16:51:20.340Z,46.50
2019-05-23T16:53:49.553Z,46.30
2019-05-23T16:56:20.141Z,46.00
2019-05-23T16:59:05.835Z,45.50
2019-05-23T17:01:56.955Z,45.30
2019-05-23T17:04:20.528Z,45.00
2019-05-23T17:06:56.748Z,44.80
2019-05-23T17:09:31.934Z,44.80
2019-05-23T17:12:11.888Z,45.00
2019-05-23T17:14:42.872Z,45.20
2019-05-23T17:17:56.855Z,44.60
2019-05-23T17:20:20.666Z,44.60
2019-05-23T17:23:06.490Z,43.90
2019-05-23T17:25:53.552Z,43.20
2019-05-23T17:28:30.176Z,42.50
2019-05-23T17:31:00.584Z,41.70
2019-05-23T17:33:31.119Z,41.10
2019-05-23T17:36:00.001Z,40.60
2019-05-23T17:38:29.212Z,40.20
2019-05-23T17:40:58.383Z,39.90
2019-05-23T17:43:27.269Z,39.50
2019-05-23T17:45:56.122Z,39.10
2019-05-23T17:48:25.081Z,38.40
2019-05-23T17:50:53.924Z,38.20
2019-05-23T17:53:23.066Z,37.90
2019-05-23T17:55:52.635Z,37.40
2019-05-23T17:58:22.271Z,36.70
2019-05-23T18:00:51.336Z,36.20
2019-05-23T18:03:20.286Z,36.50
2019-05-23T18:05:49.522Z,35.40
2019-05-23T18:08:19.179Z,34.70
2019-05-23T18:10:48.214Z,34.20
2019-05-23T18:13:18.255Z,34.10
2019-05-23T18:15:47.435Z,34.10
2019-05-23T18:18:16.947Z,34.10
2019-05-23T18:20:46.068Z,33.90
2019-05-23T18:23:14.946Z,33.60
2019-05-23T18:25:43.856Z,33.20
2019-05-23T18:28:14.013Z,32.90
2019-05-23T18:30:47.635Z,32.50
2019-05-23T18:33:22.254Z,32.40
2019-05-23T18:35:52.147Z,32.10
2019-05-23T18:38:21.612Z,32.60
2019-05-23T18:41:02.807Z,33.30
2019-05-23T18:43:21.674Z,34.20
2019-05-23T18:45:52.390Z,35.20
2019-05-23T18:48:21.244Z,35.80
2019-05-23T18:50:51.291Z,36.40
2019-05-23T18:53:21.049Z,37.10
2019-05-23T18:55:50.028Z,37.80
2019-05-23T18:58:20.132Z,38.40
2019-05-23T19:00:59.632Z,39.00
2019-05-23T19:03:28.785Z,39.50
2019-05-23T19:05:57.966Z,40.30
2019-05-23T19:08:27.301Z,41.10
2019-05-23T19:10:56.625Z,41.90
2019-05-23T19:13:26.671Z,42.40
2019-05-23T19:15:56.849Z,43.10
2019-05-23T19:18:26.841Z,43.70
2019-05-23T19:20:56.404Z,44.40
2019-05-23T19:23:25.619Z,45.10
2019-05-23T19:25:55.261Z,45.60
2019-05-23T19:28:25.213Z,46.30
2019-05-23T19:30:54.850Z,47.40
2019-05-23T19:33:25.177Z,47.20
2019-05-23T19:35:55.302Z,47.80
2019-05-23T19:38:25.197Z,48.20
2019-05-23T19:40:54.721Z,48.80
2019-05-23T19:43:23.928Z,49.30
2019-05-23T19:45:53.022Z,49.90
2019-05-23T19:48:22.787Z,50.30
2019-05-23T19:50:52.001Z,50.80
2019-05-23T19:53:20.890Z,51.30
2019-05-23T19:55:50.490Z,51.70
2019-05-23T19:58:19.749Z,52.00
2019-05-23T20:00:49.017Z,52.30
2019-05-23T20:03:18.682Z,52.70
2019-05-23T20:05:58.291Z,53.10
2019-05-23T20:08:27.259Z,53.50
2019-05-23T20:10:56.276Z,53.80
2019-05-23T20:13:25.123Z,54.20
2019-05-23T20:15:54.330Z,54.60
2019-05-23T20:18:24.065Z,54.90
2019-05-23T20:20:52.917Z,55.30
2019-05-23T20:23:21.890Z,55.60
2019-05-23T20:25:50.781Z,55.90
2019-05-23T20:28:19.699Z,56.20
2019-05-23T20:30:50.758Z,56.50
2019-05-23T20:33:20.477Z,56.80
2019-05-23T20:35:49.912Z,57.20
2019-05-23T20:38:19.024Z,57.80
2019-05-23T20:40:48.439Z,57.80
2019-05-23T20:43:17.383Z,58.10
2019-05-23T20:45:46.632Z,58.90
2019-05-23T20:48:16.622Z,58.60
2019-05-23T20:50:45.625Z,58.80
2019-05-23T20:53:14.530Z,59.10
2019-05-23T20:55:43.477Z,59.50
2019-05-23T20:58:12.418Z,59.60
2019-05-23T21:00:43.797Z,60.00
2019-05-23T21:03:12.913Z,60.60
2019-05-23T21:05:42.330Z,61.00
2019-05-23T21:08:11.313Z,61.40
2019-05-23T21:10:45.745Z,61.60
2019-05-23T21:13:14.820Z,62.20
2019-05-23T21:15:43.813Z,62.30
2019-05-23T21:18:13.133Z,62.50
2019-05-23T21:20:42.059Z,62.60
2019-05-23T21:23:10.952Z,62.80
2019-05-23T21:25:41.518Z,63.20
2019-05-23T21:28:10.544Z,63.40
2019-05-23T21:30:39.455Z,63.60
2019-05-23T21:33:08.367Z,63.90
2019-05-23T21:35:37.274Z,64.10
2019-05-23T21:38:06.204Z,64.20
2019-05-23T21:40:37.976Z,64.40
2019-05-23T21:43:07.027Z,64.80
2019-05-23T21:45:35.918Z,64.90
2019-05-23T21:48:05.378Z,65.00
2019-05-23T21:50:34.408Z,65.40
2019-05-23T21:53:03.555Z,65.50
2019-05-23T21:55:38.020Z,65.60
2019-05-23T21:58:07.616Z,66.00
2019-05-23T22:01:08.169Z,65.90
2019-05-23T22:03:42.490Z,66.10
2019-05-23T22:06:14.716Z,66.30
2019-05-23T22:08:44.328Z,66.50
2019-05-23T22:11:13.613Z,66.70
2019-05-23T22:13:42.557Z,66.80
2019-05-23T22:16:11.514Z,67.10
2019-05-23T22:18:40.344Z,67.30
2019-05-23T22:21:09.502Z,67.60
2019-05-23T22:23:38.378Z,67.80
2019-05-23T22:26:07.961Z,67.90
2019-05-23T22:28:37.231Z,68.10
2019-05-23T22:31:07.168Z,68.00
2019-05-23T22:33:40.383Z,68.20
2019-05-23T22:36:09.936Z,68.50
2019-05-23T22:38:38.814Z,68.70
2019-05-23T22:41:07.739Z,68.90
2019-05-23T22:43:36.562Z,69.20
2019-05-23T22:46:05.945Z,69.40
2019-05-23T22:48:34.838Z,69.70
2019-05-23T22:51:03.732Z,69.60
2019-05-23T22:53:32.632Z,69.80
2019-05-23T22:56:01.628Z,70.10
2019-05-23T22:58:30.460Z,70.60
2019-05-23T23:00:59.371Z,70.60
2019-05-23T23:03:28.266Z,71.70
2019-05-23T23:05:57.361Z,71.10
2019-05-23T23:08:28.368Z,71.20
2019-05-23T23:10:57.243Z,71.20
2019-05-23T23:13:38.296Z,71.30
2019-05-23T23:15:57.555Z,71.70
2019-05-23T23:18:26.442Z,71.70
2019-05-23T23:20:55.346Z,72.00
2019-05-23T23:23:24.231Z,72.10
2019-05-23T23:25:53.105Z,72.20
2019-05-23T23:28:22.066Z,72.50
2019-05-23T23:30:51.590Z,72.60
2019-05-23T23:33:20.480Z,72.90
2019-05-23T23:35:49.359Z,73.10
2019-05-23T23:38:18.284Z,73.20
2019-05-23T23:40:47.196Z,73.00
2019-05-23T23:43:16.165Z,73.10
2019-05-23T23:46:03.149Z,73.00
2019-05-23T23:48:50.214Z,73.00
2019-05-23T23:51:37.108Z,73.00
2019-05-23T23:54:23.922Z,73.00
2019-05-23T23:57:11.078Z,73.30
2019-05-23T23:59:39.240Z,73.70
